sensor_id;sensor_type;location;lat;lon;timestamp;pressure;altitude;pressure_sealevel;temperature;humidity
38163;BME280;23977;53.078;18.248;2023-02-28T00:00:12;102881.69;;;-6.20;100.00
38163;BME280;23977;53.078;18.248;2023-02-28T00:02:58;102876.50;;;-6.39;100.00
38163;BME280;23977;53.078;18.248;2023-02-28T00:05:25;102931.78;;;-5.87;100.00
38163;BME280;23977;53.078;18.248;2023-02-28T00:07:51;102928.34;;;-6.05;100.00
38163;BME280;23977;53.078;18.248;2023-02-28T00:10:19;102920.56;;;-6.14;100.00
38163;BME280;23977;53.078;18.248;2023-02-28T00:12:53;102924.03;;;-6.15;100.00
38163;BME280;23977;53.078;18.248;2023-02-28T00:15:19;102928.34;;;-6.33;100.00
38163;BME280;23977;53.078;18.248;2023-02-28T00:17:45;102901.53;;;-6.32;100.00
38163;BME280;23977;53.078;18.248;2023-02-28T00:20:12;102863.53;;;-6.42;100.00
38163;BME280;23977;53.078;18.248;2023-02-28T00:22:40;102905.84;;;-5.93;100.00
38163;BME280;23977;53.078;18.248;2023-02-28T00:25:09;102935.25;;;-5.76;100.00
38163;BME280;23977;53.078;18.248;2023-02-28T00:27:36;102924.00;;;-6.21;100.00
38163;BME280;23977;53.078;18.248;2023-02-28T00:30:03;102910.19;;;-6.31;100.00
38163;BME280;23977;53.078;18.248;2023-02-28T00:32:29;102882.53;;;-6.34;100.00
38163;BME280;23977;53.078;18.248;2023-02-28T00:34:55;102860.91;;;-6.76;100.00
38163;BME280;23977;53.078;18.248;2023-02-28T00:37:21;102881.66;;;-6.60;100.00
38163;BME280;23977;53.078;18.248;2023-02-28T00:39:47;102867.81;;;-6.72;100.00
38163;BME280;23977;53.078;18.248;2023-02-28T00:42:13;102894.56;;;-6.68;100.00
38163;BME280;23977;53.078;18.248;2023-02-28T00:44:38;102902.44;;;-6.33;100.00
38163;BME280;23977;53.078;18.248;2023-02-28T00:47:04;102923.16;;;-6.00;100.00
38163;BME280;23977;53.078;18.248;2023-02-28T00:49:30;102894.59;;;-6.59;100.00
38163;BME280;23977;53.078;18.248;2023-02-28T00:51:56;102851.34;;;-7.09;100.00
38163;BME280;23977;53.078;18.248;2023-02-28T00:54:23;102898.06;;;-6.66;100.00
38163;BME280;23977;53.078;18.248;2023-02-28T00:56:49;102902.34;;;-6.70;100.00
38163;BME280;23977;53.078;18.248;2023-02-28T00:59:17;102924.00;;;-6.23;100.00
38163;BME280;23977;53.078;18.248;2023-02-28T01:01:44;102933.53;;;-6.03;100.00
38163;BME280;23977;53.078;18.248;2023-02-28T01:04:11;102937.84;;;-6.21;100.00
38163;BME280;23977;53.078;18.248;2023-02-28T01:06:37;102824.53;;;-7.28;100.00
38163;BME280;23977;53.078;18.248;2023-02-28T01:09:05;102934.28;;;-6.63;100.00
38163;BME280;23977;53.078;18.248;2023-02-28T01:11:31;102934.31;;;-6.66;100.00
38163;BME280;23977;53.078;18.248;2023-02-28T01:13:58;102936.13;;;-6.19;100.00
38163;BME280;23977;53.078;18.248;2023-02-28T01:16:24;102889.34;;;-6.93;100.00
38163;BME280;23977;53.078;18.248;2023-02-28T01:18:50;102927.28;;;-6.93;100.00
38163;BME280;23977;53.078;18.248;2023-02-28T01:21:17;102942.84;;;-6.90;100.00
38163;BME280;23977;53.078;18.248;2023-02-28T01:23:45;102938.63;;;-6.60;100.00
38163;BME280;23977;53.078;18.248;2023-02-28T01:26:16;102895.38;;;-6.95;100.00
38163;BME280;23977;53.078;18.248;2023-02-28T01:28:42;102936.84;;;-6.80;100.00
38163;BME280;23977;53.078;18.248;2023-02-28T01:31:08;102904.94;;;-6.65;100.00
38163;BME280;23977;53.078;18.248;2023-02-28T01:33:35;102883.41;;;-6.59;100.00
38163;BME280;23977;53.078;18.248;2023-02-28T01:36:06;102930.06;;;-6.41;100.00
38163;BME280;23977;53.078;18.248;2023-02-28T01:38:33;102919.63;;;-6.65;100.00
38163;BME280;23977;53.078;18.248;2023-02-28T01:40:59;102913.53;;;-6.86;100.00
38163;BME280;23977;53.078;18.248;2023-02-28T01:43:35;102929.88;;;-6.93;100.00
38163;BME280;23977;53.078;18.248;2023-02-28T01:46:17;102909.06;;;-7.18;100.00
38163;BME280;23977;53.078;18.248;2023-02-28T01:48:58;102873.63;;;-7.42;100.00
38163;BME280;23977;53.078;18.248;2023-02-28T01:54:00;102905.59;;;-7.26;100.00
38163;BME280;23977;53.078;18.248;2023-02-28T01:56:29;102899.72;;;-6.93;100.00
38163;BME280;23977;53.078;18.248;2023-02-28T01:58:56;102882.50;;;-6.58;100.00
38163;BME280;23977;53.078;18.248;2023-02-28T02:01:23;102924.84;;;-6.59;100.00
38163;BME280;23977;53.078;18.248;2023-02-28T02:03:51;102914.38;;;-6.89;100.00
38163;BME280;23977;53.078;18.248;2023-02-28T02:06:25;102897.06;;;-7.07;100.00
38163;BME280;23977;53.078;18.248;2023-02-28T02:08:53;102895.25;;;-7.23;100.00
38163;BME280;23977;53.078;18.248;2023-02-28T02:11:20;102893.50;;;-7.30;100.00
38163;BME280;23977;53.078;18.248;2023-02-28T02:16:46;102917.84;;;-6.82;100.00
38163;BME280;23977;53.078;18.248;2023-02-28T02:19:46;102904.03;;;-6.78;100.00
38163;BME280;23977;53.078;18.248;2023-02-28T02:28:15;102930.66;;;-7.13;100.00
38163;BME280;23977;53.078;18.248;2023-02-28T02:36:27;102928.25;;;-6.73;100.00
38163;BME280;23977;53.078;18.248;2023-02-28T02:39:06;102939.38;;;-6.95;100.00
38163;BME280;23977;53.078;18.248;2023-02-28T02:41:40;102796.72;;;-7.78;100.00
38163;BME280;23977;53.078;18.248;2023-02-28T02:44:25;102833.81;;;-7.70;100.00
38163;BME280;23977;53.078;18.248;2023-02-28T02:47:03;102897.69;;;-7.54;100.00
38163;BME280;23977;53.078;18.248;2023-02-28T02:49:31;102890.84;;;-7.46;100.00
38163;BME280;23977;53.078;18.248;2023-02-28T02:52:02;102937.53;;;-7.24;100.00
38163;BME280;23977;53.078;18.248;2023-02-28T02:54:33;102936.53;;;-7.45;100.00
38163;BME280;23977;53.078;18.248;2023-02-28T02:57:03;102868.94;;;-8.03;100.00
38163;BME280;23977;53.078;18.248;2023-02-28T02:59:31;102910.44;;;-7.82;100.00
38163;BME280;23977;53.078;18.248;2023-02-28T03:02:04;102928.75;;;-7.51;100.00
38163;BME280;23977;53.078;18.248;2023-02-28T03:04:36;102946.84;;;-7.51;100.00
38163;BME280;23977;53.078;18.248;2023-02-28T03:07:03;102876.78;;;-7.86;100.00
38163;BME280;23977;53.078;18.248;2023-02-28T03:09:33;102907.03;;;-7.73;100.00
38163;BME280;23977;53.078;18.248;2023-02-28T03:11:59;102939.94;;;-7.52;100.00
38163;BME280;23977;53.078;18.248;2023-02-28T03:14:52;102892.34;;;-7.80;100.00
38163;BME280;23977;53.078;18.248;2023-02-28T03:17:55;102937.25;;;-7.67;100.00
38163;BME280;23977;53.078;18.248;2023-02-28T03:23:22;102931.22;;;-7.66;100.00
38163;BME280;23977;53.078;18.248;2023-02-28T03:26:19;102940.13;;;-7.24;100.00
38163;BME280;23977;53.078;18.248;2023-02-28T03:31:20;102895.91;;;-7.66;100.00
38163;BME280;23977;53.078;18.248;2023-02-28T03:33:51;102947.09;;;-7.09;100.00
38163;BME280;23977;53.078;18.248;2023-02-28T03:36:25;102909.00;;;-7.35;100.00
38163;BME280;23977;53.078;18.248;2023-02-28T03:39:02;102954.72;;;-7.32;100.00
38163;BME280;23977;53.078;18.248;2023-02-28T03:41:34;102946.00;;;-7.47;100.00
38163;BME280;23977;53.078;18.248;2023-02-28T03:44:22;102915.66;;;-7.75;100.00
38163;BME280;23977;53.078;18.248;2023-02-28T03:46:58;102944.97;;;-7.73;100.00
38163;BME280;23977;53.078;18.248;2023-02-28T03:52:14;102849.00;;;-8.20;100.00
38163;BME280;23977;53.078;18.248;2023-02-28T03:54:44;102906.38;;;-7.38;100.00
38163;BME280;23977;53.078;18.248;2023-02-28T03:57:17;102952.03;;;-7.45;100.00
38163;BME280;23977;53.078;18.248;2023-02-28T03:59:51;102885.25;;;-8.10;100.00
38163;BME280;23977;53.078;18.248;2023-02-28T04:02:19;102960.41;;;-7.83;100.00
38163;BME280;23977;53.078;18.248;2023-02-28T04:04:45;102832.38;;;-8.59;100.00
38163;BME280;23977;53.078;18.248;2023-02-28T04:07:14;102904.13;;;-8.19;100.00
38163;BME280;23977;53.078;18.248;2023-02-28T04:09:40;102941.38;;;-7.94;100.00
38163;BME280;23977;53.078;18.248;2023-02-28T04:12:06;102961.47;;;-7.57;100.00
38163;BME280;23977;53.078;18.248;2023-02-28T04:14:32;102928.69;;;-7.57;100.00
38163;BME280;23977;53.078;18.248;2023-02-28T04:16:58;102951.84;;;-7.75;100.00
38163;BME280;23977;53.078;18.248;2023-02-28T04:19:23;102956.09;;;-7.84;100.00
38163;BME280;23977;53.078;18.248;2023-02-28T04:21:51;102873.03;;;-8.28;100.00
38163;BME280;23977;53.078;18.248;2023-02-28T04:24:22;102920.56;;;-8.06;100.00
38163;BME280;23977;53.078;18.248;2023-02-28T04:26:51;102965.72;;;-7.59;100.00
38163;BME280;23977;53.078;18.248;2023-02-28T04:29:34;102926.66;;;-8.04;100.00
38163;BME280;23977;53.078;18.248;2023-02-28T04:32:01;102895.31;;;-8.41;100.00
38163;BME280;23977;53.078;18.248;2023-02-28T04:34:28;102970.59;;;-7.98;100.00
38163;BME280;23977;53.078;18.248;2023-02-28T04:36:55;102900.47;;;-8.41;100.00
38163;BME280;23977;53.078;18.248;2023-02-28T04:39:22;102925.09;;;-7.81;100.00
38163;BME280;23977;53.078;18.248;2023-02-28T04:41:49;102972.84;;;-7.29;100.00
38163;BME280;23977;53.078;18.248;2023-02-28T04:44:15;102930.34;;;-7.70;100.00
38163;BME280;23977;53.078;18.248;2023-02-28T04:46:41;102834.03;;;-8.64;100.00
38163;BME280;23977;53.078;18.248;2023-02-28T04:49:08;102933.47;;;-8.09;100.00
38163;BME280;23977;53.078;18.248;2023-02-28T04:51:34;102884.69;;;-7.69;100.00
38163;BME280;23977;53.078;18.248;2023-02-28T04:53:59;102927.84;;;-7.59;100.00
38163;BME280;23977;53.078;18.248;2023-02-28T04:56:25;102987.16;;;-7.74;100.00
38163;BME280;23977;53.078;18.248;2023-02-28T04:58:51;102973.13;;;-8.03;100.00
38163;BME280;23977;53.078;18.248;2023-02-28T05:01:30;102909.38;;;-8.07;100.00
38163;BME280;23977;53.078;18.248;2023-02-28T05:03:57;102960.28;;;-7.95;100.00
38163;BME280;23977;53.078;18.248;2023-02-28T05:06:27;102961.03;;;-8.10;100.00
38163;BME280;23977;53.078;18.248;2023-02-28T05:08:53;102980.88;;;-8.07;100.00
38163;BME280;23977;53.078;18.248;2023-02-28T05:11:28;102983.91;;;-7.52;100.00
38163;BME280;23977;53.078;18.248;2023-02-28T05:13:54;102986.28;;;-7.76;100.00
38163;BME280;23977;53.078;18.248;2023-02-28T05:16:21;102970.41;;;-8.20;100.00
38163;BME280;23977;53.078;18.248;2023-02-28T05:18:47;102994.91;;;-7.77;100.00
38163;BME280;23977;53.078;18.248;2023-02-28T05:24:05;102976.25;;;-7.36;100.00
38163;BME280;23977;53.078;18.248;2023-02-28T05:26:35;102990.78;;;-7.54;100.00
38163;BME280;23977;53.078;18.248;2023-02-28T05:29:02;102943.88;;;-8.02;100.00
38163;BME280;23977;53.078;18.248;2023-02-28T05:31:27;102982.75;;;-7.88;100.00
38163;BME280;23977;53.078;18.248;2023-02-28T05:33:53;102927.31;;;-8.24;100.00
38163;BME280;23977;53.078;18.248;2023-02-28T05:36:19;102985.53;;;-7.63;100.00
38163;BME280;23977;53.078;18.248;2023-02-28T05:38:49;102956.13;;;-7.81;100.00
38163;BME280;23977;53.078;18.248;2023-02-28T05:41:15;102921.41;;;-8.12;100.00
38163;BME280;23977;53.078;18.248;2023-02-28T05:43:41;102938.00;;;-7.84;100.00
38163;BME280;23977;53.078;18.248;2023-02-28T05:46:09;102945.91;;;-7.62;100.00
38163;BME280;23977;53.078;18.248;2023-02-28T05:48:36;102928.56;;;-7.78;100.00
38163;BME280;23977;53.078;18.248;2023-02-28T05:51:04;103002.06;;;-7.46;100.00
38163;BME280;23977;53.078;18.248;2023-02-28T05:53:30;102968.31;;;-7.61;100.00
38163;BME280;23977;53.078;18.248;2023-02-28T05:55:56;102961.63;;;-7.34;100.00
38163;BME280;23977;53.078;18.248;2023-02-28T05:58:22;102959.13;;;-7.19;100.00
38163;BME280;23977;53.078;18.248;2023-02-28T06:00:48;102979.88;;;-7.07;100.00
38163;BME280;23977;53.078;18.248;2023-02-28T06:03:13;103013.69;;;-6.70;100.00
38163;BME280;23977;53.078;18.248;2023-02-28T06:05:39;102978.34;;;-6.67;100.00
38163;BME280;23977;53.078;18.248;2023-02-28T06:08:05;102963.59;;;-6.84;100.00
38163;BME280;23977;53.078;18.248;2023-02-28T06:10:35;102982.63;;;-6.76;100.00
38163;BME280;23977;53.078;18.248;2023-02-28T06:13:02;102978.34;;;-6.67;100.00
38163;BME280;23977;53.078;18.248;2023-02-28T06:15:29;103012.09;;;-6.44;100.00
38163;BME280;23977;53.078;18.248;2023-02-28T06:17:55;103017.28;;;-6.35;100.00
38163;BME280;23977;53.078;18.248;2023-02-28T06:20:25;103012.16;;;-5.87;100.00
38163;BME280;23977;53.078;18.248;2023-02-28T06:22:55;102949.72;;;-4.87;100.00
38163;BME280;23977;53.078;18.248;2023-02-28T06:25:21;102989.56;;;-3.55;100.00
38163;BME280;23977;53.078;18.248;2023-02-28T06:27:47;102900.25;;;-2.84;100.00
38163;BME280;23977;53.078;18.248;2023-02-28T06:30:14;103004.13;;;-0.51;100.00
38163;BME280;23977;53.078;18.248;2023-02-28T06:32:39;102979.66;;;1.54;100.00
38163;BME280;23977;53.078;18.248;2023-02-28T06:35:05;102970.69;;;3.40;82.92
38163;BME280;23977;53.078;18.248;2023-02-28T06:37:31;102928.28;;;4.54;66.11
38163;BME280;23977;53.078;18.248;2023-02-28T06:39:58;102988.22;;;6.23;54.93
38163;BME280;23977;53.078;18.248;2023-02-28T06:42:24;102952.03;;;8.33;49.91
38163;BME280;23977;53.078;18.248;2023-02-28T06:44:55;102905.84;;;10.04;45.18
38163;BME280;23977;53.078;18.248;2023-02-28T06:47:21;102993.50;;;10.73;42.16
38163;BME280;23977;53.078;18.248;2023-02-28T06:49:47;102995.31;;;12.45;39.79
38163;BME280;23977;53.078;18.248;2023-02-28T06:52:16;102989.66;;;13.51;37.51
38163;BME280;23977;53.078;18.248;2023-02-28T06:54:42;102939.56;;;13.42;36.75
38163;BME280;23977;53.078;18.248;2023-02-28T06:57:08;102999.31;;;13.86;36.16
38163;BME280;23977;53.078;18.248;2023-02-28T06:59:34;102977.13;;;13.95;34.49
38163;BME280;23977;53.078;18.248;2023-02-28T07:02:01;102968.72;;;15.25;33.71
38163;BME280;23977;53.078;18.248;2023-02-28T07:04:29;103013.97;;;16.09;32.46
38163;BME280;23977;53.078;18.248;2023-02-28T07:06:57;102964.41;;;16.51;31.59
38163;BME280;23977;53.078;18.248;2023-02-28T07:09:23;103004.31;;;17.58;30.34
38163;BME280;23977;53.078;18.248;2023-02-28T07:11:49;102998.97;;;17.76;30.39
38163;BME280;23977;53.078;18.248;2023-02-28T07:14:39;102965.47;;;18.15;29.11
38163;BME280;23977;53.078;18.248;2023-02-28T07:17:09;102879.88;;;19.03;27.42
38163;BME280;23977;53.078;18.248;2023-02-28T07:19:41;102873.13;;;20.31;25.83
38163;BME280;23977;53.078;18.248;2023-02-28T07:22:07;102986.03;;;22.18;24.48
38163;BME280;23977;53.078;18.248;2023-02-28T07:24:34;102984.59;;;22.31;24.18
38163;BME280;23977;53.078;18.248;2023-02-28T07:27:00;102978.31;;;23.56;23.03
38163;BME280;23977;53.078;18.248;2023-02-28T07:29:27;102976.06;;;23.38;23.19
38163;BME280;23977;53.078;18.248;2023-02-28T07:31:53;102963.19;;;20.40;25.06
38163;BME280;23977;53.078;18.248;2023-02-28T07:34:22;102980.34;;;21.67;24.73
38163;BME280;23977;53.078;18.248;2023-02-28T07:36:48;102926.97;;;22.29;23.45
38163;BME280;23977;53.078;18.248;2023-02-28T07:39:13;102909.97;;;23.59;22.38
38163;BME280;23977;53.078;18.248;2023-02-28T07:41:39;102962.78;;;23.87;22.48
38163;BME280;23977;53.078;18.248;2023-02-28T07:44:10;102981.84;;;25.13;21.32
38163;BME280;23977;53.078;18.248;2023-02-28T07:46:36;102966.91;;;23.24;23.24
38163;BME280;23977;53.078;18.248;2023-02-28T07:49:03;102987.81;;;23.09;22.46
38163;BME280;23977;53.078;18.248;2023-02-28T07:51:29;102974.50;;;22.16;23.05
38163;BME280;23977;53.078;18.248;2023-02-28T07:53:55;102987.34;;;22.90;23.53
38163;BME280;23977;53.078;18.248;2023-02-28T07:56:21;102983.41;;;22.93;22.93
38163;BME280;23977;53.078;18.248;2023-02-28T07:58:47;102987.63;;;23.83;22.12
38163;BME280;23977;53.078;18.248;2023-02-28T08:01:13;102952.00;;;25.66;21.11
38163;BME280;23977;53.078;18.248;2023-02-28T08:03:40;102972.16;;;26.32;20.12
38163;BME280;23977;53.078;18.248;2023-02-28T08:06:09;102962.09;;;26.33;20.09
38163;BME280;23977;53.078;18.248;2023-02-28T08:08:39;102931.47;;;25.02;20.03
38163;BME280;23977;53.078;18.248;2023-02-28T08:11:05;102969.69;;;26.04;19.77
38163;BME280;23977;53.078;18.248;2023-02-28T08:13:31;102983.00;;;25.45;20.57
38163;BME280;23977;53.078;18.248;2023-02-28T08:15:57;102993.94;;;24.62;20.89
38163;BME280;23977;53.078;18.248;2023-02-28T08:18:23;102959.34;;;25.04;20.43
38163;BME280;23977;53.078;18.248;2023-02-28T08:20:49;102924.06;;;25.51;20.01
38163;BME280;23977;53.078;18.248;2023-02-28T08:23:15;102947.34;;;26.67;19.62
38163;BME280;23977;53.078;18.248;2023-02-28T08:25:41;102948.78;;;27.60;18.94
38163;BME280;23977;53.078;18.248;2023-02-28T08:28:06;102972.81;;;27.83;18.44
38163;BME280;23977;53.078;18.248;2023-02-28T08:30:32;102963.69;;;27.96;17.94
38163;BME280;23977;53.078;18.248;2023-02-28T08:32:58;102956.41;;;29.38;17.18
38163;BME280;23977;53.078;18.248;2023-02-28T08:35:24;102952.38;;;32.64;14.78
38163;BME280;23977;53.078;18.248;2023-02-28T08:37:49;102929.72;;;32.18;15.88
38163;BME280;23977;53.078;18.248;2023-02-28T08:40:16;102913.13;;;31.79;15.27
38163;BME280;23977;53.078;18.248;2023-02-28T08:42:45;102951.69;;;32.74;15.55
38163;BME280;23977;53.078;18.248;2023-02-28T08:45:12;102916.22;;;33.37;14.08
38163;BME280;23977;53.078;18.248;2023-02-28T08:47:38;102942.69;;;33.33;14.53
38163;BME280;23977;53.078;18.248;2023-02-28T08:50:04;102934.81;;;36.13;11.98
38163;BME280;23977;53.078;18.248;2023-02-28T08:52:30;102937.03;;;34.88;13.05
38163;BME280;23977;53.078;18.248;2023-02-28T08:54:56;102901.16;;;34.40;13.47
38163;BME280;23977;53.078;18.248;2023-02-28T08:57:21;102913.22;;;34.77;12.85
38163;BME280;23977;53.078;18.248;2023-02-28T08:59:47;102916.53;;;34.74;13.36
38163;BME280;23977;53.078;18.248;2023-02-28T09:02:13;102928.13;;;36.35;12.04
38163;BME280;23977;53.078;18.248;2023-02-28T09:04:40;102899.34;;;34.66;12.95
38163;BME280;23977;53.078;18.248;2023-02-28T09:07:07;102913.13;;;32.57;13.45
38163;BME280;23977;53.078;18.248;2023-02-28T09:09:33;102935.72;;;34.33;12.79
38163;BME280;23977;53.078;18.248;2023-02-28T09:11:58;102939.34;;;33.31;12.91
38163;BME280;23977;53.078;18.248;2023-02-28T09:14:24;102919.31;;;32.86;13.16
38163;BME280;23977;53.078;18.248;2023-02-28T09:16:50;102939.03;;;34.35;12.29
38163;BME280;23977;53.078;18.248;2023-02-28T09:19:16;102936.19;;;29.63;15.22
38163;BME280;23977;53.078;18.248;2023-02-28T09:21:41;102933.38;;;30.05;15.40
38163;BME280;23977;53.078;18.248;2023-02-28T09:24:07;102943.28;;;30.18;15.16
38163;BME280;23977;53.078;18.248;2023-02-28T09:26:33;102934.16;;;32.85;13.23
38163;BME280;23977;53.078;18.248;2023-02-28T09:28:59;102913.41;;;32.33;13.39
38163;BME280;23977;53.078;18.248;2023-02-28T09:31:27;102947.97;;;27.85;16.31
38163;BME280;23977;53.078;18.248;2023-02-28T09:33:56;102909.53;;;26.64;17.14
38163;BME280;23977;53.078;18.248;2023-02-28T09:36:23;102944.88;;;29.60;15.79
38163;BME280;23977;53.078;18.248;2023-02-28T09:38:49;102948.66;;;29.16;15.15
38163;BME280;23977;53.078;18.248;2023-02-28T09:41:19;102950.03;;;28.15;16.00
38163;BME280;23977;53.078;18.248;2023-02-28T09:43:49;102894.44;;;30.08;15.32
38163;BME280;23977;53.078;18.248;2023-02-28T09:46:34;102877.59;;;33.69;12.22
38163;BME280;23977;53.078;18.248;2023-02-28T09:49:07;102917.69;;;34.98;11.56
38163;BME280;23977;53.078;18.248;2023-02-28T09:51:53;102929.97;;;31.99;13.47
38163;BME280;23977;53.078;18.248;2023-02-28T09:54:23;102936.22;;;28.28;16.03
38163;BME280;23977;53.078;18.248;2023-02-28T09:59:35;102938.47;;;26.79;16.85
38163;BME280;23977;53.078;18.248;2023-02-28T10:07:37;102946.97;;;25.70;17.40
38163;BME280;23977;53.078;18.248;2023-02-28T10:10:20;102938.41;;;26.20;17.21
38163;BME280;23977;53.078;18.248;2023-02-28T10:12:47;102941.41;;;25.17;17.39
38163;BME280;23977;53.078;18.248;2023-02-28T10:15:15;102934.19;;;29.28;14.57
38163;BME280;23977;53.078;18.248;2023-02-28T10:17:45;102879.56;;;26.31;16.74
38163;BME280;23977;53.078;18.248;2023-02-28T10:20:19;102912.13;;;25.45;17.09
38163;BME280;23977;53.078;18.248;2023-02-28T10:25:35;102886.22;;;25.08;17.15
38163;BME280;23977;53.078;18.248;2023-02-28T10:28:09;102927.63;;;24.42;18.22
38163;BME280;23977;53.078;18.248;2023-02-28T10:30:38;102923.19;;;22.15;20.31
38163;BME280;23977;53.078;18.248;2023-02-28T10:33:05;102871.84;;;22.13;19.71
38163;BME280;23977;53.078;18.248;2023-02-28T10:35:31;102862.31;;;20.87;20.02
38163;BME280;23977;53.078;18.248;2023-02-28T10:38:00;102866.88;;;18.99;21.29
38163;BME280;23977;53.078;18.248;2023-02-28T10:40:35;102913.97;;;14.87;25.65
38163;BME280;23977;53.078;18.248;2023-02-28T10:45:34;102929.00;;;11.68;31.06
38163;BME280;23977;53.078;18.248;2023-02-28T10:48:05;102882.81;;;10.56;32.85
38163;BME280;23977;53.078;18.248;2023-02-28T10:50:35;102896.50;;;9.44;35.79
38163;BME280;23977;53.078;18.248;2023-02-28T10:55:33;102852.19;;;8.02;37.15
38163;BME280;23977;53.078;18.248;2023-02-28T10:57:58;102899.75;;;7.75;38.57
38163;BME280;23977;53.078;18.248;2023-02-28T11:00:25;102928.25;;;7.55;40.07
38163;BME280;23977;53.078;18.248;2023-02-28T11:02:56;102925.34;;;6.96;43.65
38163;BME280;23977;53.078;18.248;2023-02-28T11:05:34;102868.34;;;6.40;45.25
38163;BME280;23977;53.078;18.248;2023-02-28T11:08:17;102921.97;;;6.59;46.44
38163;BME280;23977;53.078;18.248;2023-02-28T11:10:46;102877.59;;;5.79;47.68
38163;BME280;23977;53.078;18.248;2023-02-28T11:13:21;102850.50;;;5.56;47.84
38163;BME280;23977;53.078;18.248;2023-02-28T11:15:53;102897.84;;;5.97;48.12
38163;BME280;23977;53.078;18.248;2023-02-28T11:18:28;102851.25;;;5.60;47.77
38163;BME280;23977;53.078;18.248;2023-02-28T11:20:57;102867.81;;;5.44;48.28
38163;BME280;23977;53.078;18.248;2023-02-28T11:23:26;102901.75;;;5.71;48.97
38163;BME280;23977;53.078;18.248;2023-02-28T11:25:56;102867.38;;;5.53;47.73
38163;BME280;23977;53.078;18.248;2023-02-28T11:28:35;102844.53;;;5.35;47.76
38163;BME280;23977;53.078;18.248;2023-02-28T11:33:55;102913.66;;;5.43;50.50
38163;BME280;23977;53.078;18.248;2023-02-28T11:36:30;102902.34;;;5.59;49.10
38163;BME280;23977;53.078;18.248;2023-02-28T11:38:59;102881.84;;;5.46;48.97
38163;BME280;23977;53.078;18.248;2023-02-28T11:47:29;102843.91;;;5.47;47.25
38163;BME280;23977;53.078;18.248;2023-02-28T11:56:33;102891.28;;;5.14;49.38
38163;BME280;23977;53.078;18.248;2023-02-28T12:02:25;102879.44;;;5.04;49.30
38163;BME280;23977;53.078;18.248;2023-02-28T12:07:57;102872.94;;;5.30;49.26
38163;BME280;23977;53.078;18.248;2023-02-28T12:10:32;102880.41;;;5.39;49.04
38163;BME280;23977;53.078;18.248;2023-02-28T12:13:21;102874.00;;;5.26;49.65
38163;BME280;23977;53.078;18.248;2023-02-28T12:16:21;102871.59;;;5.02;50.71
38163;BME280;23977;53.078;18.248;2023-02-28T12:22:22;102830.63;;;5.12;50.28
38163;BME280;23977;53.078;18.248;2023-02-28T12:27:49;102869.16;;;5.16;49.61
38163;BME280;23977;53.078;18.248;2023-02-28T12:30:23;102862.03;;;5.18;49.20
38163;BME280;23977;53.078;18.248;2023-02-28T12:32:56;102860.88;;;5.05;49.68
38163;BME280;23977;53.078;18.248;2023-02-28T12:35:33;102867.53;;;4.95;51.40
38163;BME280;23977;53.078;18.248;2023-02-28T12:38:34;102862.94;;;4.79;51.58
38163;BME280;23977;53.078;18.248;2023-02-28T12:41:00;102824.00;;;4.47;52.62
38163;BME280;23977;53.078;18.248;2023-02-28T12:43:33;102816.94;;;4.66;51.57
38163;BME280;23977;53.078;18.248;2023-02-28T12:46:24;102863.16;;;5.13;51.65
38163;BME280;23977;53.078;18.248;2023-02-28T12:48:56;102864.59;;;5.01;50.47
38163;BME280;23977;53.078;18.248;2023-02-28T12:51:24;102756.66;;;4.39;50.04
38163;BME280;23977;53.078;18.248;2023-02-28T12:54:07;102855.63;;;5.05;49.42
38163;BME280;23977;53.078;18.248;2023-02-28T12:57:01;102768.56;;;4.48;49.62
38163;BME280;23977;53.078;18.248;2023-02-28T12:59:41;102812.81;;;4.79;47.95
38163;BME280;23977;53.078;18.248;2023-02-28T13:10:39;102792.84;;;4.93;46.86
38163;BME280;23977;53.078;18.248;2023-02-28T13:13:14;102806.66;;;5.17;45.72
38163;BME280;23977;53.078;18.248;2023-02-28T13:16:00;102821.59;;;5.35;46.75
38163;BME280;23977;53.078;18.248;2023-02-28T13:18:32;102818.34;;;5.30;46.47
38163;BME280;23977;53.078;18.248;2023-02-28T13:21:00;102818.22;;;5.14;47.75
38163;BME280;23977;53.078;18.248;2023-02-28T13:26:07;102786.47;;;5.16;46.37
38163;BME280;23977;53.078;18.248;2023-02-28T13:31:18;102775.41;;;5.08;47.46
38163;BME280;23977;53.078;18.248;2023-02-28T13:38:46;102797.41;;;5.08;45.40
38163;BME280;23977;53.078;18.248;2023-02-28T13:49:31;102755.75;;;4.96;45.85
38163;BME280;23977;53.078;18.248;2023-02-28T13:54:39;102777.47;;;4.84;47.08
38163;BME280;23977;53.078;18.248;2023-02-28T13:57:40;102744.03;;;4.46;47.01
38163;BME280;23977;53.078;18.248;2023-02-28T14:05:22;102770.13;;;4.71;47.09
38163;BME280;23977;53.078;18.248;2023-02-28T14:07:57;102740.63;;;4.63;48.19
38163;BME280;23977;53.078;18.248;2023-02-28T14:10:30;102727.13;;;4.69;48.13
38163;BME280;23977;53.078;18.248;2023-02-28T14:12:58;102762.06;;;4.74;47.85
38163;BME280;23977;53.078;18.248;2023-02-28T14:18:28;102761.06;;;4.58;48.61
38163;BME280;23977;53.078;18.248;2023-02-28T14:21:03;102757.59;;;4.76;49.62
38163;BME280;23977;53.078;18.248;2023-02-28T14:35:23;102717.59;;;4.67;51.09
38163;BME280;23977;53.078;18.248;2023-02-28T14:37:55;102736.13;;;4.65;51.68
38163;BME280;23977;53.078;18.248;2023-02-28T14:40:28;102699.38;;;4.24;52.00
38163;BME280;23977;53.078;18.248;2023-02-28T14:42:58;102730.22;;;4.60;51.36
38163;BME280;23977;53.078;18.248;2023-02-28T14:45:27;102682.13;;;4.17;51.20
38163;BME280;23977;53.078;18.248;2023-02-28T14:47:54;102734.97;;;4.33;51.88
38163;BME280;23977;53.078;18.248;2023-02-28T14:50:23;102740.97;;;4.36;50.88
38163;BME280;23977;53.078;18.248;2023-02-28T14:52:53;102710.75;;;4.05;51.21